Decoded Metar for KGMU (GREENVILLE in SC, USA) (IATA:GMU) | Meteo·Mobile Aviation Weather
aviador You're here:

KGMU Decoded Metar

GREENVILLE in SC, USA
Report Time2018-10-19 18:53:00
UTC Time2018-10-19 19:26:15
Flight Rules vfr VFR
Wind190° at 08 kt
W.Decomp.*RWY 19: 8.0 kt HW 0.7 kt RCW
RWY 28: 0.7 kt HW 8 kt LCW
W.Rank190° ranks 17
Current wind is above 190° avg. (5.9)
Visibility9999 m
Phenomena:N/A
Clouds:N/A
Expected CloudBase > 5,600 ft AGL from Temp-Dew spread
CeilingNone
Temp21°C (ISA +8)
Dew Point07°C (40% RH)
AAT17.4°C
QNH1024 hPa
Density Alt1,742 ft
Elevation1,033 ft
Report Wrong Elevation
Raw Report
METAR KGMU 191853Z 19008KT 10SM CLR 21/07 A3023 RMK AO2 SLP231 T02060072=

Extra information for KGMU:More info

Metar Taf Metar & Taf Last 4 Metars F.Rules Stats Wind Profile Meteogram Temp Stats Airport Information Weather charts Add Link Nearby VenuesMetar ALERT Operation Metar Decoded Social comments

AIRNAV info for KGMU